Terminal Aerodrome Forecast
Issued by NWS Central Illinois

Home | Current Version | Previous Version | Text Only | Print | Product List | Glossary On
Versions: 1 2 3 4 5 6 7 8 9 10 11 12
000
FTUS43 KILX 010500
TAFPIA
TAF
KPIA 010520Z 0106/0206 00000KT P6SM SCT080 BKN150
     FM010900 VRB02KT 6SM BR BKN080
     FM011400 23003KT P6SM BKN060
     FM011700 20004KT P6SM VCTS BKN050CB
     FM012200 VRB02KT P6SM SCT150=

USA.gov is the U.S. government's official web portal to all federal, state and local government web resources and services.